หน้าหลัก
METAR-TAF:

METAR-TAF

ท่าอากาศยาน :

Benbecula, สกอตแลนด์

ละติจูด: 57-28N, ลองจิจูด: 007-22W, ความสูง: 6 ม.

การสังเกตสภาพอากาศปัจจุบัน

รายงานได้ทำขึ้นเมื่อ 35 นาทีที่แล้ว ณ เวลา 23:20 UTC
ลม 1 นอตจากเหนือ
อุณหภูมิ 8°C
ความชื้น 81%
ความกดอากาศ 1023 hPa
ทัศนวิสัย 10 กม. หรือมากกว่า

METAR: EGPL 182320Z AUTO 36001KT 9999 OVC040/// 08/05 Q1023

เวลา: 00:55 (23:55 UTC)

การพยากรณ์

รายงานได้ทำขึ้นเมื่อ 9 ชั่วโมงและ 55 นาทีที่แล้ว ณ เวลา 14:00 UTC
การพยากรณ์มีผลตั้งแต่วันที่ 18 ณ เวลา 15 UTC จนถึงวันที่ 18 ณ เวลา 17 UTC
ลม 17 นอตจากเหนือ
ทัศนวิสัย 10 กม. หรือมากกว่า
มีเมฆน้อยที่ความสูง 1500 ฟุต
มีเมฆกระจายเป็นบางส่วนที่ความสูง 2500 ฟุต

TAF: EGPL 181400Z 1815/1817 36017KT 9999 FEW015 SCT025

สังเกตการณ์สภาพอากาศและพยากรณ์อากาศของสนามบินมากกว่า 4000 แห่ง (รายงาน METAR และ TAF).

สถานีที่ดูได้จะแสดงไว้ด้วยจุดสีเหลืองและสีแดงบนแผนที่.

เลื่อนเมาส์ไปเหนือจุดเพื่อดูชื่อสถานี.

แล้วคลิกเพื่อดูสังเกตการณ์และการพยากรณ์สภาพอากาศ.

ในการเปลี่ยนแผนที่: คลิกที่ปุ่มสีเขียวที่มีกากบาทสีดำเพื่อซูมเข้า; ที่ปุ่มสีเขียวที่มีขีดเพื่อซูมออก; หรือที่ลูกศรสีเขียวเพื่อไปยังแผนที่ที่อยู่ติดกัน.


METAR-TAF: